Terminal Aerodrome Forecast
Issued by NWS Quad Cities IA IL

Home | Current Version | Previous Version | Text Only | Print | Product List | Glossary On
Versions: 1 2 3 4 5 6 7 8 9 10 11 12 13 14 15 16 17 18 19 20 21 22 23 24 25
000
FTUS43 KDVN 041025 AAD
TAFMLI
TAF AMD
KMLI 041025Z 0410/0506 VRB05KT P6SM -SHRA VCTS OVC050CB
     FM041300 23007KT P6SM SCT040 BKN090
     FM042300 VRB05KT P6SM VCSH SCT070 BKN120 PROB30 0500/0506 4SM
      -SHRA BKN035 OVC050=

USA.gov is the U.S. government's official web portal to all federal, state and local government web resources and services.